Time;durP1;ratioP1;P1;durP2;ratioP2;P2;SDS_P1;SDS_P2;PMS_P1;PMS_P2;Temp;Humidity;BMP_temperature;BMP_pressure;BME280_temperature;BME280_humidity;BME280_pressure;Samples;Min_cycle;Max_cycle;Signal;HPM_P1;HPM_P2
2021/03/01 00:02:04;;;;;;;10.17;9.27;;;8.00;30.10;;;;;;5010602;28;20181;-66
2021/03/01 00:04:30;;;;;;;10.27;9.27;;;8.20;29.60;;;;;;5010623;28;20284;-67
2021/03/01 00:06:55;;;;;;;10.33;9.20;;;8.20;29.50;;;;;;5010876;28;20624;-67
2021/03/01 00:09:21;;;;;;;11.60;9.77;;;8.20;29.40;;;;;;5010473;28;20173;-67
2021/03/01 00:11:46;;;;;;;9.93;8.93;;;8.20;29.40;;;;;;5010653;28;20184;-67
2021/03/01 00:14:12;;;;;;;12.40;10.33;;;7.80;30.00;;;;;;5028290;28;20319;-66
2021/03/01 00:16:37;;;;;;;10.73;9.73;;;7.50;30.40;;;;;;5014284;28;20184;-68
2021/03/01 00:19:03;;;;;;;11.30;10.20;;;7.60;30.80;;;;;;5013978;28;20177;-68
2021/03/01 00:21:29;;;;;;;11.80;10.27;;;7.70;30.60;;;;;;5014082;28;20197;-66
2021/03/01 00:23:54;;;;;;;10.33;9.30;;;7.70;30.70;;;;;;5014057;28;20209;-67
2021/03/01 00:26:19;;;;;;;11.97;10.77;;;7.70;30.50;;;;;;5015722;28;20559;-67
2021/03/01 00:28:45;;;;;;;12.03;10.47;;;7.80;30.60;;;;;;5022499;28;20188;-67
2021/03/01 00:31:11;;;;;;;11.20;10.20;;;7.80;30.70;;;;;;5018033;28;20197;-66
2021/03/01 00:33:36;;;;;;;11.00;9.80;;;7.90;30.70;;;;;;5013983;28;20197;-69
2021/03/01 00:36:02;;;;;;;10.53;9.40;;;7.80;30.60;;;;;;5025425;28;20220;-68
2021/03/01 00:38:27;;;;;;;10.20;9.30;;;7.80;30.60;;;;;;5033407;28;20177;-68
2021/03/01 00:40:54;;;;;;;11.50;10.30;;;7.70;30.60;;;;;;5033561;28;20213;-67
2021/03/01 00:43:20;;;;;;;11.30;9.83;;;7.50;30.60;;;;;;5033311;28;20193;-67
2021/03/01 00:45:45;;;;;;;11.17;10.07;;;7.40;31.20;;;;;;5033284;28;20417;-67
2021/03/01 00:48:11;;;;;;;10.47;9.43;;;7.00;32.20;;;;;;5033281;28;20183;-67
2021/03/01 00:50:36;;;;;;;10.87;9.77;;;6.80;32.90;;;;;;5014559;28;20328;-68
2021/03/01 00:53:02;;;;;;;11.73;10.53;;;6.60;33.20;;;;;;5013523;28;20650;-67
2021/03/01 00:55:27;;;;;;;10.00;9.00;;;6.60;33.80;;;;;;5013435;28;20181;-66
2021/03/01 00:57:53;;;;;;;10.57;9.03;;;6.70;33.30;;;;;;5013196;28;20290;-67
2021/03/01 01:00:19;;;;;;;9.73;8.83;;;6.90;33.00;;;;;;5013272;28;20246;-67
2021/03/01 01:02:45;;;;;;;10.83;9.63;;;7.00;32.70;;;;;;5013326;28;20205;-67
2021/03/01 01:05:11;;;;;;;11.53;10.33;;;7.10;32.30;;;;;;5013072;28;20412;-66
2021/03/01 01:07:37;;;;;;;11.00;9.73;;;7.10;32.20;;;;;;5013255;28;20815;-67
2021/03/01 01:10:06;;;;;;;10.60;9.50;;;7.30;32.20;;;;;;5013095;28;20436;-66
2021/03/01 01:12:41;;;;;;;9.93;9.03;;;7.60;31.30;;;;;;5013224;28;20188;-66
2021/03/01 01:15:09;;;;;;;10.20;9.20;;;7.60;30.70;;;;;;5028332;28;20415;-67
2021/03/01 01:17:34;;;;;;;11.00;9.47;;;7.70;30.50;;;;;;5013164;28;20918;-67
2021/03/01 01:20:00;;;;;;;12.43;9.87;;;7.80;30.60;;;;;;5012928;28;20436;-68
2021/03/01 01:22:26;;;;;;;10.83;9.70;;;7.80;30.50;;;;;;5012925;28;20215;-67
2021/03/01 01:24:51;;;;;;;10.60;9.57;;;7.80;30.30;;;;;;5011934;28;20180;-66
2021/03/01 01:27:17;;;;;;;9.90;8.80;;;7.80;30.20;;;;;;5012717;28;20668;-68
2021/03/01 01:29:42;;;;;;;10.33;9.33;;;7.70;30.50;;;;;;5012576;28;20197;-66
2021/03/01 01:32:08;;;;;;;9.43;8.43;;;7.60;30.30;;;;;;5012846;28;20227;-66
2021/03/01 01:34:34;;;;;;;14.60;10.87;;;7.70;30.10;;;;;;5012824;28;20247;-66
2021/03/01 01:36:59;;;;;;;10.20;8.97;;;7.40;30.30;;;;;;5012670;28;20200;-66
2021/03/01 01:39:25;;;;;;;9.07;8.17;;;7.40;30.30;;;;;;5012522;28;20193;-69
2021/03/01 01:41:50;;;;;;;9.43;8.43;;;7.30;30.20;;;;;;5012513;28;20543;-65
2021/03/01 01:44:16;;;;;;;9.30;8.47;;;7.30;30.20;;;;;;5012583;28;20208;-66
2021/03/01 01:46:41;;;;;;;9.70;8.70;;;7.20;30.40;;;;;;5012643;28;20165;-67
2021/03/01 01:49:07;;;;;;;10.87;9.77;;;7.40;30.60;;;;;;5012309;28;20173;-67
2021/03/01 01:51:32;;;;;;;10.63;9.53;;;7.20;30.60;;;;;;5012335;28;20196;-66
2021/03/01 01:53:58;;;;;;;10.43;9.43;;;7.20;30.90;;;;;;5011251;28;20180;-66
2021/03/01 01:56:24;;;;;;;10.70;9.70;;;7.20;31.30;;;;;;5012258;28;20260;-66
2021/03/01 01:58:50;;;;;;;11.57;10.47;;;7.10;31.70;;;;;;5012088;28;20216;-67
2021/03/01 02:01:15;;;;;;;12.13;10.20;;;7.20;31.20;;;;;;5012075;28;20559;-66
2021/03/01 02:03:43;;;;;;;10.70;9.60;;;7.10;31.50;;;;;;5012193;28;20459;-66
2021/03/01 02:06:30;;;;;;;11.43;10.23;;;7.10;31.70;;;;;;5012202;28;20324;-67
2021/03/01 02:09:21;;;;;;;11.30;10.07;;;7.10;31.50;;;;;;5011968;28;20408;-66
2021/03/01 02:12:14;;;;;;;10.73;9.73;;;7.00;32.00;;;;;;5011980;28;20474;-67
2021/03/01 02:15:01;;;;;;;10.43;9.43;;;6.90;32.00;;;;;;5012041;28;20400;-67
2021/03/01 02:17:27;;;;;;;12.53;10.10;;;6.80;32.50;;;;;;5011732;28;20412;-67
2021/03/01 02:19:52;;;;;;;11.93;10.67;;;6.70;32.60;;;;;;5014265;28;20454;-66
2021/03/01 02:22:18;;;;;;;10.60;9.50;;;6.70;32.70;;;;;;5016480;28;20185;-68
2021/03/01 02:24:48;;;;;;;11.57;10.37;;;6.70;32.60;;;;;;5040487;28;20180;-66
2021/03/01 02:27:20;;;;;;;10.27;9.30;;;6.60;32.60;;;;;;5051319;28;20171;-67
2021/03/01 02:29:47;;;;;;;10.80;9.80;;;6.60;33.00;;;;;;5036343;28;20481;-67
2021/03/01 02:32:15;;;;;;;10.80;9.70;;;6.70;32.50;;;;;;5031617;28;20855;-68
2021/03/01 02:34:42;;;;;;;10.50;9.40;;;6.90;32.50;;;;;;5031530;28;20408;-66
2021/03/01 02:37:13;;;;;;;11.27;10.20;;;7.10;32.30;;;;;;5030929;28;20414;-67
2021/03/01 02:39:43;;;;;;;10.67;9.30;;;7.10;32.30;;;;;;5019421;28;20969;-66
2021/03/01 02:42:10;;;;;;;12.47;10.13;;;7.20;31.90;;;;;;5011528;28;20405;-67
2021/03/01 02:44:38;;;;;;;10.80;9.67;;;7.10;31.80;;;;;;5011545;28;20522;-67
2021/03/01 02:47:03;;;;;;;13.37;11.47;;;7.00;31.80;;;;;;5011325;28;20462;-66
2021/03/01 02:49:29;;;;;;;10.90;9.90;;;6.80;32.60;;;;;;5011731;28;20455;-69
2021/03/01 02:51:56;;;;;;;10.90;9.20;;;6.70;32.40;;;;;;5011567;28;20607;-67
2021/03/01 02:54:23;;;;;;;11.00;10.00;;;6.80;32.80;;;;;;5011380;28;20559;-66
2021/03/01 02:56:50;;;;;;;10.57;9.57;;;6.40;33.30;;;;;;5011399;28;20533;-68
2021/03/01 02:59:19;;;;;;;9.93;9.00;;;6.30;34.10;;;;;;5011131;28;20976;-66
2021/03/01 03:01:46;;;;;;;11.53;10.43;;;6.60;33.70;;;;;;5011337;28;20423;-68
2021/03/01 03:04:11;;;;;;;11.33;9.87;;;6.70;33.40;;;;;;5011518;28;20546;-68
2021/03/01 03:06:38;;;;;;;10.40;9.40;;;6.40;33.60;;;;;;5011280;28;20978;-66
2021/03/01 03:09:08;;;;;;;11.37;10.27;;;6.40;33.40;;;;;;5011212;28;20324;-67
2021/03/01 03:11:34;;;;;;;11.57;9.83;;;6.10;34.40;;;;;;5011100;28;20422;-67
2021/03/01 03:14:00;;;;;;;12.80;10.23;;;6.30;34.80;;;;;;5011360;28;20966;-67
2021/03/01 03:16:27;;;;;;;12.23;9.20;;;6.50;34.00;;;;;;5011231;28;20169;-68
2021/03/01 03:18:56;;;;;;;10.90;9.80;;;6.50;34.00;;;;;;5011217;28;20979;-67
2021/03/01 03:21:22;;;;;;;11.83;10.50;;;6.10;34.20;;;;;;5011026;28;20427;-66
2021/03/01 03:23:48;;;;;;;10.13;9.23;;;6.00;35.00;;;;;;5011055;28;20454;-66
2021/03/01 03:26:13;;;;;;;12.57;10.07;;;5.80;35.40;;;;;;5010993;28;20898;-67
2021/03/01 03:28:48;;;;;;;10.70;9.60;;;5.80;35.70;;;;;;5010901;28;20702;-67
2021/03/01 03:31:14;;;;;;;10.63;9.67;;;5.80;35.60;;;;;;5010915;28;20770;-64
2021/03/01 03:33:40;;;;;;;11.60;10.10;;;5.90;35.50;;;;;;5010913;28;20510;-66
2021/03/01 03:36:07;;;;;;;12.37;9.53;;;6.00;35.60;;;;;;5018623;28;20186;-65
2021/03/01 03:38:38;;;;;;;10.17;8.53;;;5.90;35.10;;;;;;5018603;28;20938;-66
2021/03/01 03:41:05;;;;;;;12.83;10.77;;;5.70;36.10;;;;;;5010754;28;20961;-67
2021/03/01 03:43:33;;;;;;;10.87;8.97;;;5.30;36.80;;;;;;5010768;28;20458;-66
2021/03/01 03:46:02;;;;;;;11.43;10.20;;;5.40;36.90;;;;;;5024436;28;20419;-66
2021/03/01 03:48:29;;;;;;;11.00;9.43;;;5.50;36.80;;;;;;5031868;28;20406;-66
2021/03/01 03:50:59;;;;;;;15.17;9.03;;;5.70;36.70;;;;;;5030765;28;20479;-66
2021/03/01 03:53:27;;;;;;;10.90;9.80;;;5.70;36.50;;;;;;5014420;28;20922;-65
2021/03/01 03:55:56;;;;;;;12.23;9.70;;;6.10;35.70;;;;;;5015152;28;20565;-66
2021/03/01 03:58:27;;;;;;;10.50;9.50;;;6.30;34.70;;;;;;5046132;28;20433;-65
2021/03/01 04:00:53;;;;;;;12.17;10.97;;;6.50;34.60;;;;;;5025580;28;20925;-65
2021/03/01 04:03:22;;;;;;;11.03;9.80;;;6.50;33.90;;;;;;5014341;28;20456;-65
2021/03/01 04:05:50;;;;;;;13.30;10.60;;;6.50;33.70;;;;;;5033856;28;20409;-66
2021/03/01 04:08:18;;;;;;;11.53;10.33;;;6.50;33.40;;;;;;5034111;28;20413;-65
2021/03/01 04:10:54;;;;;;;10.23;9.17;;;6.50;33.40;;;;;;5032859;28;20441;-66
2021/03/01 04:13:23;;;;;;;12.90;9.97;;;6.40;33.60;;;;;;5034299;28;20461;-67
2021/03/01 04:15:49;;;;;;;10.20;9.20;;;6.30;33.60;;;;;;5031182;28;20468;-66
2021/03/01 04:18:20;;;;;;;10.10;9.10;;;6.30;33.60;;;;;;5022679;28;20939;-65
2021/03/01 04:20:46;;;;;;;10.97;9.87;;;6.20;33.30;;;;;;5014232;28;20196;-64
2021/03/01 04:23:15;;;;;;;10.50;9.57;;;6.40;32.90;;;;;;5014040;28;20510;-65
2021/03/01 04:25:42;;;;;;;10.40;9.40;;;6.50;32.30;;;;;;5014251;28;20408;-66
2021/03/01 04:28:09;;;;;;;10.80;9.70;;;6.30;32.40;;;;;;5015630;28;20450;-65
2021/03/01 04:30:35;;;;;;;11.20;9.83;;;6.30;33.20;;;;;;5023104;28;20450;-66
2021/03/01 04:33:01;;;;;;;10.77;9.67;;;6.20;32.90;;;;;;5016175;28;20430;-65
2021/03/01 04:35:28;;;;;;;10.60;9.43;;;6.30;33.10;;;;;;5013896;28;20413;-66
2021/03/01 04:37:53;;;;;;;10.20;8.73;;;6.20;33.10;;;;;;5013646;28;20426;-66
2021/03/01 04:40:19;;;;;;;11.37;10.17;;;6.10;33.10;;;;;;5013659;28;20950;-66
2021/03/01 04:42:47;;;;;;;11.03;10.00;;;6.00;33.70;;;;;;5013585;28;20251;-66
2021/03/01 04:45:16;;;;;;;10.97;9.83;;;6.10;33.40;;;;;;5013691;28;21019;-66
2021/03/01 04:47:42;;;;;;;11.80;10.60;;;6.10;33.60;;;;;;5013449;28;20398;-65
2021/03/01 04:50:11;;;;;;;12.33;9.00;;;6.30;33.10;;;;;;5013625;28;20423;-67
2021/03/01 04:52:37;;;;;;;15.33;10.50;;;6.30;32.70;;;;;;5013622;28;20926;-67
2021/03/01 04:55:06;;;;;;;10.37;9.40;;;6.20;33.10;;;;;;5013562;28;20502;-65
2021/03/01 04:57:32;;;;;;;11.70;10.57;;;6.10;33.10;;;;;;5013188;28;20415;-65
2021/03/01 05:00:03;;;;;;;10.87;8.93;;;6.20;33.40;;;;;;5013308;28;20827;-66
2021/03/01 05:02:30;;;;;;;10.67;9.57;;;6.10;33.20;;;;;;5013447;28;20555;-65
2021/03/01 05:04:56;;;;;;;12.37;9.97;;;6.10;33.60;;;;;;5013348;28;20405;-65
2021/03/01 05:07:24;;;;;;;11.13;9.20;;;6.00;33.50;;;;;;5013087;28;20538;-65
2021/03/01 05:09:51;;;;;;;11.00;9.90;;;6.10;33.50;;;;;;5013285;28;20428;-65
2021/03/01 05:12:17;;;;;;;12.00;9.80;;;6.30;34.00;;;;;;5013228;28;20407;-66
2021/03/01 05:14:42;;;;;;;9.13;8.20;;;6.40;32.80;;;;;;5013172;28;20409;-66
2021/03/01 05:17:08;;;;;;;9.33;8.40;;;6.60;31.70;;;;;;5013077;28;20177;-66
2021/03/01 05:19:34;;;;;;;9.37;8.43;;;6.50;32.00;;;;;;5013013;28;20181;-65
2021/03/01 05:22:00;;;;;;;11.20;10.00;;;6.40;32.80;;;;;;5013098;28;20172;-65
2021/03/01 05:24:25;;;;;;;11.47;10.30;;;6.20;33.40;;;;;;5012915;28;20797;-65
2021/03/01 05:26:52;;;;;;;13.20;11.23;;;6.20;33.60;;;;;;5013081;28;20172;-65
2021/03/01 05:29:17;;;;;;;16.30;11.47;;;6.00;34.20;;;;;;5012656;28;20183;-65
2021/03/01 05:31:44;;;;;;;11.80;10.60;;;5.90;34.70;;;;;;5013386;28;20404;-65
2021/03/01 05:34:10;;;;;;;14.60;10.33;;;5.90;34.80;;;;;;5020769;28;20184;-64
2021/03/01 05:36:36;;;;;;;12.30;11.00;;;5.90;34.60;;;;;;5032493;28;20407;-64
2021/03/01 05:39:02;;;;;;;14.87;11.23;;;5.80;34.90;;;;;;5027601;28;20201;-65
2021/03/01 05:41:30;;;;;;;15.50;10.77;;;5.80;35.00;;;;;;5019785;28;20819;-64
2021/03/01 05:43:55;;;;;;;13.60;10.63;;;5.80;35.10;;;;;;5026760;28;20463;-66
2021/03/01 05:46:23;;;;;;;13.33;11.30;;;5.70;34.90;;;;;;5026604;28;20426;-66
2021/03/01 05:48:49;;;;;;;13.87;11.20;;;5.80;35.30;;;;;;5032002;28;20418;-66
2021/03/01 05:51:15;;;;;;;14.33;11.27;;;6.10;34.50;;;;;;5012444;28;20940;-66
2021/03/01 05:53:43;;;;;;;11.40;9.80;;;6.00;34.50;;;;;;5012393;28;20408;-66
2021/03/01 05:56:10;;;;;;;12.33;10.80;;;5.50;35.00;;;;;;5012429;28;20408;-66
2021/03/01 05:58:36;;;;;;;10.73;9.73;;;5.30;36.00;;;;;;5012065;28;20413;-65
2021/03/01 06:01:04;;;;;;;12.30;11.00;;;5.00;37.00;;;;;;5024167;28;20538;-65
2021/03/01 06:03:30;;;;;;;12.13;10.93;;;4.90;37.90;;;;;;5031837;28;20947;-65
2021/03/01 06:05:57;;;;;;;13.03;11.43;;;4.80;38.30;;;;;;5031894;28;20404;-65
2021/03/01 06:08:25;;;;;;;10.90;9.83;;;4.80;38.30;;;;;;5031524;28;20408;-66
2021/03/01 06:10:55;;;;;;;12.93;11.17;;;5.00;38.50;;;;;;5031073;28;20427;-65
2021/03/01 06:13:21;;;;;;;13.40;10.63;;;5.20;37.80;;;;;;5031675;28;20447;-65
2021/03/01 06:15:48;;;;;;;15.53;11.43;;;5.40;37.30;;;;;;5031643;28;20462;-66
2021/03/01 06:18:13;;;;;;;13.07;10.90;;;5.60;36.70;;;;;;5031421;28;20176;-66
2021/03/01 06:20:41;;;;;;;13.17;10.60;;;5.80;35.90;;;;;;5031446;28;20529;-66
2021/03/01 06:23:07;;;;;;;14.53;10.80;;;5.80;35.80;;;;;;5031449;28;20205;-66
2021/03/01 06:25:33;;;;;;;12.97;11.77;;;6.00;35.60;;;;;;5031432;28;20473;-65
2021/03/01 06:28:02;;;;;;;15.13;11.13;;;6.10;35.00;;;;;;5031214;28;20914;-66
2021/03/01 06:30:29;;;;;;;16.30;11.83;;;6.20;34.80;;;;;;5027393;28;20213;-68
2021/03/01 06:33:07;;;;;;;14.27;11.20;;;6.10;34.80;;;;;;5030568;28;20411;-68
2021/03/01 06:35:35;;;;;;;15.00;11.80;;;6.00;36.20;;;;;;5031052;28;20501;-67
2021/03/01 06:38:20;;;;;;;16.60;11.70;;;6.10;35.70;;;;;;5030552;28;20438;-68
2021/03/01 06:41:10;;;;;;;11.63;10.53;;;6.30;47.00;;;;;;5030371;28;20437;-66
2021/03/01 06:43:38;;;;;;;11.53;8.30;;;9.80;63.70;;;;;;5030887;28;20454;-66
2021/03/01 06:46:09;;;;;;;13.77;10.63;;;10.80;61.80;;;;;;5030380;28;20449;-66
2021/03/01 06:48:34;;;;;;;10.93;9.17;;;10.20;39.50;;;;;;5029529;28;20430;-66
2021/03/01 06:51:00;;;;;;;11.03;9.90;;;10.70;50.10;;;;;;5026658;28;20439;-66
2021/03/01 06:53:26;;;;;;;12.30;11.10;;;10.30;35.60;;;;;;5020651;28;20295;-68
2021/03/01 06:56:00;;;;;;;13.10;10.50;;;9.30;35.30;;;;;;5025806;28;20585;-67
2021/03/01 06:58:28;;;;;;;13.40;10.00;;;7.70;29.40;;;;;;5030448;28;20835;-67
2021/03/01 07:01:02;;;;;;;11.50;10.30;;;7.00;41.00;;;;;;5021673;28;20911;-68
2021/03/01 07:03:28;;;;;;;14.90;10.17;;;6.60;39.10;;;;;;5010777;28;20466;-66
2021/03/01 07:05:55;;;;;;;12.80;10.80;;;6.30;35.30;;;;;;5010802;28;20408;-66
2021/03/01 07:08:52;;;;;;;12.43;11.23;;;6.00;37.40;;;;;;5008196;28;20545;-65
2021/03/01 07:11:36;;;;;;;14.20;11.70;;;6.20;37.60;;;;;;5006370;28;20440;-67
2021/03/01 07:14:04;;;;;;;16.97;11.40;;;5.70;36.80;;;;;;5010806;28;20420;-66
2021/03/01 07:16:40;;;;;;;15.47;11.30;;;5.60;37.60;;;;;;5010694;28;20927;-67
2021/03/01 07:19:18;;;;;;;11.80;10.53;;;5.60;36.10;;;;;;5010403;28;20412;-66
2021/03/01 07:21:56;;;;;;;15.57;11.70;;;6.20;44.00;;;;;;5010630;28;20931;-68
2021/03/01 07:24:23;;;;;;;11.43;10.23;;;7.10;35.20;;;;;;5009902;28;20451;-65
2021/03/01 07:26:50;;;;;;;12.47;11.27;;;7.10;38.50;;;;;;5010654;28;20412;-67
2021/03/01 07:29:17;;;;;;;12.17;10.87;;;7.30;43.20;;;;;;5010162;28;20414;-66
2021/03/01 07:32:05;;;;;;;18.90;13.40;;;8.20;42.10;;;;;;5010186;28;20416;-67
2021/03/01 07:34:31;;;;;;;16.93;12.97;;;7.20;33.10;;;;;;5010414;28;20424;-67
2021/03/01 07:36:59;;;;;;;17.17;12.33;;;6.50;38.30;;;;;;5010560;28;20500;-66
2021/03/01 07:39:26;;;;;;;15.50;10.57;;;6.50;37.00;;;;;;5010059;28;20963;-66
2021/03/01 07:41:53;;;;;;;13.43;11.33;;;8.20;41.50;;;;;;5010382;28;20413;-65
2021/03/01 07:44:25;;;;;;;13.67;12.07;;;8.30;41.10;;;;;;5010325;28;20470;-66
2021/03/01 07:46:51;;;;;;;18.30;13.80;;;8.60;39.30;;;;;;5010616;28;20440;-66
2021/03/01 07:49:45;;;;;;;12.03;10.87;;;8.90;37.10;;;;;;5010382;28;20408;-66
2021/03/01 07:52:20;;;;;;;16.90;12.80;;;8.80;37.50;;;;;;5008512;28;20424;-67
2021/03/01 07:55:05;;;;;;;16.23;12.10;;;8.70;36.80;;;;;;5010598;28;20403;-67
2021/03/01 07:57:32;;;;;;;14.37;12.27;;;10.10;38.90;;;;;;5010371;28;20755;-67
2021/03/01 08:00:19;;;;;;;13.90;12.50;;;10.20;30.30;;;;;;5010263;28;20833;-67
2021/03/01 08:02:45;;;;;;;15.70;12.93;;;9.70;31.60;;;;;;5010506;28;20456;-67
2021/03/01 08:05:26;;;;;;;16.40;13.03;;;9.00;29.90;;;;;;5010449;28;20439;-67
2021/03/01 08:07:51;;;;;;;12.17;11.07;;;8.90;34.40;;;;;;5010309;28;20516;-67
2021/03/01 08:10:40;;;;;;;16.37;14.03;;;9.70;34.20;;;;;;5010536;28;20570;-66
2021/03/01 08:13:07;;;;;;;17.27;12.77;;;9.30;36.50;;;;;;5010224;28;20408;-67
2021/03/01 08:15:38;;;;;;;18.60;13.70;;;10.30;38.80;;;;;;5010290;28;20427;-65
2021/03/01 08:18:04;;;;;;;16.13;13.40;;;9.70;31.40;;;;;;5009964;28;20904;-67
2021/03/01 08:20:32;;;;;;;15.37;12.37;;;9.80;33.40;;;;;;5010199;28;20808;-67
2021/03/01 08:23:21;;;;;;;15.23;13.30;;;9.90;31.20;;;;;;5009971;28;20459;-68
2021/03/01 08:25:51;;;;;;;16.20;12.33;;;9.50;29.20;;;;;;5010053;28;21089;-66
2021/03/01 08:28:16;;;;;;;15.57;13.80;;;8.30;30.00;;;;;;5010049;28;20484;-67
2021/03/01 08:30:52;;;;;;;13.73;12.33;;;8.50;29.20;;;;;;5019734;28;20911;-67
2021/03/01 08:33:18;;;;;;;14.57;11.30;;;8.30;32.60;;;;;;5014583;28;20224;-67
2021/03/01 08:35:46;;;;;;;13.20;11.67;;;9.10;38.00;;;;;;5033341;28;20529;-67
2021/03/01 08:38:13;;;;;;;16.77;14.30;;;9.80;34.90;;;;;;5015361;28;20652;-68
2021/03/01 08:40:56;;;;;;;14.03;12.60;;;10.40;29.70;;;;;;5029019;28;20456;-68
2021/03/01 08:43:35;;;;;;;16.73;13.30;;;9.50;27.90;;;;;;5030469;28;20482;-68
2021/03/01 08:46:01;;;;;;;17.13;13.80;;;9.10;28.20;;;;;;5029961;28;20462;-69
2021/03/01 08:48:27;;;;;;;15.63;13.97;;;8.80;28.70;;;;;;5032747;28;20458;-69
2021/03/01 08:50:53;;;;;;;67.57;41.10;;;8.60;29.00;;;;;;5031535;28;20423;-70
2021/03/01 08:53:28;;;;;;;31.93;24.13;;;8.70;29.70;;;;;;5026949;28;20276;-68
2021/03/01 08:55:58;;;;;;;18.13;16.13;;;8.60;29.60;;;;;;5029737;28;20418;-69
2021/03/01 08:58:29;;;;;;;17.47;15.67;;;8.30;30.00;;;;;;5032209;28;20450;-69
2021/03/01 09:01:00;;;;;;;19.90;13.70;;;8.40;30.20;;;;;;5032619;28;20435;-70
2021/03/01 09:03:30;;;;;;;17.47;15.57;;;8.40;29.70;;;;;;5032767;28;20458;-69
2021/03/01 09:06:19;;;;;;;19.37;13.90;;;8.40;30.20;;;;;;5032155;28;20407;-68
2021/03/01 09:08:52;;;;;;;17.53;14.30;;;8.20;30.00;;;;;;5032372;28;20779;-68
2021/03/01 09:11:30;;;;;;;18.13;12.60;;;8.10;30.40;;;;;;5032606;28;20436;-67
2021/03/01 09:13:59;;;;;;;19.93;14.07;;;8.30;29.90;;;;;;5032331;28;20469;-68
2021/03/01 09:16:27;;;;;;;16.23;13.97;;;8.40;29.80;;;;;;5032317;28;20424;-68
2021/03/01 09:18:58;;;;;;;14.70;13.20;;;8.40;29.60;;;;;;5032292;28;20473;-67
2021/03/01 09:21:24;;;;;;;16.10;13.30;;;8.60;29.40;;;;;;5030765;28;20450;-68
2021/03/01 09:23:51;;;;;;;16.40;14.07;;;8.50;29.00;;;;;;5032271;28;20831;-67
2021/03/01 09:26:21;;;;;;;18.93;12.73;;;8.60;29.20;;;;;;5032142;28;20404;-69
2021/03/01 09:28:47;;;;;;;15.97;13.50;;;8.60;28.80;;;;;;5031339;28;20825;-69
2021/03/01 09:31:14;;;;;;;11.80;10.60;;;8.60;29.00;;;;;;5031850;28;20514;-69
2021/03/01 09:33:41;;;;;;;14.10;11.73;;;8.70;28.60;;;;;;5032224;28;20411;-70
2021/03/01 09:36:08;;;;;;;12.63;11.53;;;8.70;28.10;;;;;;5031585;28;20512;-69
2021/03/01 09:38:36;;;;;;;13.43;11.30;;;8.80;28.20;;;;;;5030365;28;20427;-68
2021/03/01 09:41:04;;;;;;;14.37;11.30;;;8.90;28.40;;;;;;5031902;28;20977;-68
2021/03/01 09:43:30;;;;;;;13.17;10.97;;;9.10;28.10;;;;;;5011401;28;20464;-67
2021/03/01 09:45:57;;;;;;;14.00;12.50;;;9.10;27.50;;;;;;5011520;28;20499;-68
2021/03/01 09:48:24;;;;;;;13.07;11.60;;;9.20;28.10;;;;;;5020633;28;20207;-67
2021/03/01 09:50:50;;;;;;;17.43;13.10;;;9.40;27.90;;;;;;5028892;28;20427;-68
2021/03/01 09:53:17;;;;;;;15.73;11.67;;;9.40;27.60;;;;;;5013863;28;20499;-68
2021/03/01 09:55:44;;;;;;;12.97;11.67;;;9.60;27.00;;;;;;5031170;28;20481;-69
2021/03/01 09:58:24;;;;;;;21.10;12.03;;;9.70;26.60;;;;;;5031409;28;20968;-70
2021/03/01 10:00:50;;;;;;;13.23;10.93;;;9.80;26.20;;;;;;5031619;28;21112;-68
2021/03/01 10:03:16;;;;;;;12.60;11.30;;;10.00;25.30;;;;;;5031521;28;20453;-70
2021/03/01 10:05:49;;;;;;;14.30;12.77;;;10.10;24.70;;;;;;5031204;28;20408;-68
2021/03/01 10:08:21;;;;;;;16.70;12.53;;;10.50;24.20;;;;;;5030944;28;20175;-69
2021/03/01 10:10:47;;;;;;;17.00;11.23;;;10.50;24.00;;;;;;5031255;28;20489;-68
2021/03/01 10:13:34;;;;;;;13.83;12.20;;;10.60;24.10;;;;;;5031217;28;20419;-68
2021/03/01 10:16:02;;;;;;;11.93;10.73;;;10.50;24.00;;;;;;5031267;28;20755;-69
2021/03/01 10:18:30;;;;;;;13.20;11.10;;;10.60;23.60;;;;;;5029479;28;20451;-68
2021/03/01 10:21:06;;;;;;;16.70;12.13;;;10.60;23.60;;;;;;5030638;28;20514;-70
2021/03/01 10:23:40;;;;;;;13.60;10.87;;;10.60;23.20;;;;;;5030993;28;20852;-68
2021/03/01 10:26:21;;;;;;;13.10;11.70;;;10.70;23.20;;;;;;5031436;28;20457;-69
2021/03/01 10:28:59;;;;;;;12.40;11.20;;;10.70;23.10;;;;;;5024643;28;20423;-69
2021/03/01 10:31:37;;;;;;;12.50;11.20;;;10.90;22.70;;;;;;5030865;28;20993;-69
2021/03/01 10:34:10;;;;;;;13.20;11.80;;;10.90;22.40;;;;;;5031046;28;20426;-71
2021/03/01 10:36:58;;;;;;;18.50;13.37;;;10.90;22.10;;;;;;5030504;28;20466;-71
2021/03/01 10:39:43;;;;;;;11.13;10.03;;;10.90;22.50;;;;;;5030154;28;20518;-69
2021/03/01 10:42:27;;;;;;;12.20;11.10;;;10.90;22.00;;;;;;5024893;28;20435;-68
2021/03/01 10:44:57;;;;;;;13.70;11.23;;;11.00;22.30;;;;;;5030818;28;20411;-70
2021/03/01 10:47:30;;;;;;;13.70;11.03;;;11.00;23.10;;;;;;5029802;28;20443;-71
2021/03/01 10:49:58;;;;;;;11.50;10.10;;;11.10;21.80;;;;;;5010530;28;20950;-71
2021/03/01 10:52:26;;;;;;;12.17;10.87;;;11.10;21.70;;;;;;5009764;28;20420;-72
2021/03/01 10:54:54;;;;;;;10.23;9.33;;;11.10;21.90;;;;;;5025821;28;20431;-72
2021/03/01 10:57:20;;;;;;;12.13;11.03;;;11.10;21.80;;;;;;5020619;28;20463;-71
2021/03/01 10:59:50;;;;;;;11.73;10.27;;;11.20;22.60;;;;;;5015205;28;20444;-69
2021/03/01 11:02:16;;;;;;;17.47;10.73;;;11.30;21.70;;;;;;5029548;28;20419;-72
2021/03/01 11:04:41;;;;;;;12.70;11.00;;;11.30;21.40;;;;;;5024435;28;20847;-70
2021/03/01 11:07:07;;;;;;;13.23;9.93;;;11.30;21.50;;;;;;5029632;28;20169;-70
2021/03/01 11:09:33;;;;;;;10.60;9.63;;;11.40;21.60;;;;;;5011341;28;20185;-70
2021/03/01 11:11:58;;;;;;;11.30;10.20;;;11.50;21.60;;;;;;5016488;28;20242;-71
2021/03/01 11:14:24;;;;;;;10.67;9.67;;;11.60;21.20;;;;;;5031128;28;20216;-69
2021/03/01 11:16:52;;;;;;;10.37;9.37;;;11.70;20.90;;;;;;5023461;28;20212;-70
2021/03/01 11:19:18;;;;;;;11.10;9.97;;;11.90;20.20;;;;;;5029774;28;20280;-70
2021/03/01 11:21:44;;;;;;;9.90;8.90;;;11.90;20.00;;;;;;5029150;28;20498;-72
2021/03/01 11:24:11;;;;;;;11.27;9.47;;;12.20;20.30;;;;;;5029823;28;20257;-69
2021/03/01 11:26:37;;;;;;;10.90;9.83;;;12.60;20.70;;;;;;5030510;28;20592;-70
2021/03/01 11:29:03;;;;;;;10.43;9.43;;;12.70;19.70;;;;;;5030476;28;20423;-69
2021/03/01 11:31:32;;;;;;;9.83;9.00;;;12.90;18.90;;;;;;5030020;28;20438;-69
2021/03/01 11:33:59;;;;;;;9.87;8.90;;;13.30;18.60;;;;;;5028831;28;20937;-70
2021/03/01 11:36:24;;;;;;;10.20;9.20;;;13.50;17.30;;;;;;5030171;28;20452;-69
2021/03/01 11:38:53;;;;;;;10.53;9.53;;;13.60;17.70;;;;;;5029538;28;20439;-72
2021/03/01 11:41:18;;;;;;;11.13;9.77;;;14.00;17.60;;;;;;5045568;28;20204;-71
2021/03/01 11:43:44;;;;;;;10.23;8.63;;;14.20;17.00;;;;;;5029766;28;20463;-70
2021/03/01 11:46:10;;;;;;;12.17;10.10;;;14.40;16.70;;;;;;5029614;28;20173;-71
2021/03/01 11:48:37;;;;;;;12.57;9.60;;;14.50;17.00;;;;;;5029579;28;20232;-68
2021/03/01 11:51:03;;;;;;;9.60;8.80;;;14.60;16.70;;;;;;5029253;28;20447;-68
2021/03/01 11:53:29;;;;;;;11.30;10.20;;;14.80;16.40;;;;;;5022866;28;20459;-70
2021/03/01 11:55:54;;;;;;;12.17;9.20;;;15.20;15.90;;;;;;5023550;28;20475;-69
2021/03/01 11:58:20;;;;;;;10.10;9.10;;;15.50;15.70;;;;;;5026785;28;20188;-72
2021/03/01 12:00:45;;;;;;;10.20;9.13;;;15.80;14.90;;;;;;5029024;28;20707;-70
2021/03/01 12:03:11;;;;;;;9.00;8.13;;;15.80;14.50;;;;;;5029649;28;20621;-71
2021/03/01 12:05:39;;;;;;;7.93;7.33;;;16.10;13.60;;;;;;5029646;28;20675;-71
2021/03/01 12:08:05;;;;;;;9.60;8.53;;;16.20;12.80;;;;;;5029268;28;20243;-68
2021/03/01 12:10:32;;;;;;;10.13;8.43;;;16.40;13.00;;;;;;5032468;28;20441;-69
2021/03/01 12:12:58;;;;;;;10.30;9.40;;;16.90;12.30;;;;;;5027555;28;20428;-69
2021/03/01 12:15:23;;;;;;;7.40;6.73;;;16.60;11.90;;;;;;5024010;28;21011;-69
2021/03/01 12:17:49;;;;;;;8.20;7.37;;;16.30;11.30;;;;;;5032219;28;20181;-71
2021/03/01 12:20:15;;;;;;;6.80;6.20;;;16.10;11.40;;;;;;5023896;28;20213;-69
2021/03/01 12:22:40;;;;;;;8.27;6.70;;;15.80;11.50;;;;;;5013260;28;20173;-70
2021/03/01 12:25:06;;;;;;;8.03;6.60;;;15.50;11.60;;;;;;5023403;28;20223;-69
2021/03/01 12:27:32;;;;;;;12.77;10.20;;;15.50;11.90;;;;;;5027679;28;20181;-69
2021/03/01 12:29:57;;;;;;;27.50;21.80;;;15.40;11.80;;;;;;5013542;28;20846;-69
2021/03/01 12:32:23;;;;;;;9.97;9.00;;;15.30;12.80;;;;;;5013277;28;20624;-70
2021/03/01 12:34:48;;;;;;;12.37;11.20;;;15.30;12.00;;;;;;5013526;28;20180;-69
2021/03/01 12:37:15;;;;;;;6.70;6.10;;;15.10;11.40;;;;;;5013353;28;20662;-70
2021/03/01 12:39:41;;;;;;;7.43;5.67;;;15.10;12.20;;;;;;5013078;28;20802;-70
2021/03/01 12:42:07;;;;;;;55.50;38.60;;;15.10;11.90;;;;;;5013162;28;20443;-70
2021/03/01 12:44:34;;;;;;;11.77;10.60;;;15.10;11.50;;;;;;5013227;28;20284;-71
2021/03/01 12:47:00;;;;;;;7.53;6.87;;;15.10;11.80;;;;;;5013254;28;20420;-70
2021/03/01 12:49:26;;;;;;;5.13;4.83;;;15.20;11.70;;;;;;5013407;28;20415;-71